createdAt,value
2023-04-28T03:00:45.663Z,5.18
2023-04-28T03:03:14.281Z,6.38
2023-04-28T03:05:43.624Z,7.80
2023-04-28T03:08:11.794Z,8.52
2023-04-28T03:10:39.675Z,5.38
2023-04-28T03:13:07.650Z,8.02
2023-04-28T03:15:36.603Z,6.00
2023-04-28T03:18:06.957Z,7.18
2023-04-28T03:20:34.861Z,5.85
2023-04-28T03:23:02.985Z,5.15
2023-04-28T03:25:31.235Z,7.93
2023-04-28T03:27:59.064Z,5.00
2023-04-28T03:30:30.268Z,8.23
2023-04-28T03:32:59.267Z,6.28
2023-04-28T03:35:28.858Z,7.32
2023-04-28T03:37:57.519Z,7.35
2023-04-28T03:40:26.403Z,7.13
2023-04-28T03:43:14.633Z,6.38
2023-04-28T03:46:01.179Z,8.57
2023-04-28T03:48:29.785Z,6.28
2023-04-28T03:50:59.124Z,6.30
2023-04-28T03:53:27.032Z,6.93
2023-04-28T03:55:54.928Z,7.07
2023-04-28T03:58:22.845Z,7.72
2023-04-28T04:00:51.296Z,7.90
2023-04-28T04:03:21.708Z,7.05
2023-04-28T04:05:50.237Z,8.27
2023-04-28T04:08:19.881Z,5.68
2023-04-28T04:10:47.783Z,9.73
2023-04-28T04:13:16.043Z,6.13
2023-04-28T04:15:45.231Z,6.53
2023-04-28T04:18:13.230Z,6.78
2023-04-28T04:21:01.054Z,6.43
2023-04-28T04:23:31.507Z,9.35
2023-04-28T04:25:59.500Z,6.18
2023-04-28T04:28:27.473Z,7.20
2023-04-28T04:30:55.457Z,7.72
2023-04-28T04:33:24.116Z,6.05
2023-04-28T04:35:52.351Z,6.93
2023-04-28T04:38:20.334Z,6.80
2023-04-28T04:40:49.587Z,5.40
2023-04-28T04:43:17.640Z,7.40
2023-04-28T04:45:49.405Z,7.13
2023-04-28T04:48:18.036Z,5.00
2023-04-28T04:50:47.590Z,7.22
2023-04-28T04:53:16.427Z,5.82
2023-04-28T04:55:45.524Z,6.85
2023-04-28T04:58:14.992Z,5.47
2023-04-28T05:01:10.216Z,7.45
2023-04-28T05:03:38.526Z,8.85
2023-04-28T05:06:06.674Z,8.32
2023-04-28T05:08:42.118Z,7.70
2023-04-28T05:11:10.026Z,7.15
2023-04-28T05:13:40.668Z,6.03
2023-04-28T05:16:08.649Z,6.82
2023-04-28T05:19:00.350Z,9.20
2023-04-28T05:21:28.569Z,5.38
2023-04-28T05:23:57.198Z,8.10
2023-04-28T05:26:26.099Z,8.02
2023-04-28T05:28:59.414Z,6.93
2023-04-28T05:31:27.311Z,6.20
2023-04-28T05:33:56.520Z,9.07
2023-04-28T05:36:24.399Z,7.68
2023-04-28T05:38:52.495Z,10.13
2023-04-28T05:41:20.834Z,8.93
2023-04-28T05:43:51.166Z,8.50
2023-04-28T05:46:30.113Z,8.23
2023-04-28T05:49:00.415Z,9.85
2023-04-28T05:51:33.632Z,10.20
2023-04-28T05:54:01.630Z,9.55
2023-04-28T05:56:31.261Z,9.48
2023-04-28T05:59:04.031Z,9.70
2023-04-28T06:01:33.572Z,9.32
2023-04-28T06:04:01.761Z,13.77
2023-04-28T06:06:29.868Z,9.13
2023-04-28T06:08:58.072Z,10.82
2023-04-28T06:11:27.234Z,9.90
2023-04-28T06:13:55.186Z,11.10
2023-04-28T06:16:23.484Z,8.15
2023-04-28T06:18:53.257Z,13.30
2023-04-28T06:21:22.160Z,12.88
2023-04-28T06:23:50.238Z,10.13
2023-04-28T06:26:18.761Z,11.38
2023-04-28T06:28:47.019Z,8.90
2023-04-28T06:31:15.129Z,11.05
2023-04-28T06:33:43.330Z,11.43
2023-04-28T06:36:16.759Z,10.38
2023-04-28T06:38:44.735Z,10.88
2023-04-28T06:41:12.940Z,10.27
2023-04-28T06:43:43.069Z,10.25
2023-04-28T06:46:22.613Z,10.77
2023-04-28T06:48:50.887Z,10.63
2023-04-28T06:51:20.162Z,10.32
2023-04-28T06:53:48.018Z,10.93
2023-04-28T06:56:15.943Z,9.00
2023-04-28T06:58:43.819Z,11.07
2023-04-28T07:01:11.732Z,11.05
2023-04-28T07:03:39.697Z,12.73
2023-04-28T07:06:07.992Z,12.25
2023-04-28T07:08:37.498Z,18.25
2023-04-28T07:11:06.212Z,9.48
2023-04-28T07:13:34.088Z,9.50
2023-04-28T07:16:02.527Z,9.48
2023-04-28T07:18:30.422Z,10.85
2023-04-28T07:20:58.265Z,9.77
2023-04-28T07:23:26.201Z,10.70
2023-04-28T07:25:55.471Z,10.35
2023-04-28T07:28:23.300Z,11.20
2023-04-28T07:30:51.222Z,11.75
2023-04-28T07:33:19.060Z,8.75
2023-04-28T07:35:47.002Z,13.32
2023-04-28T07:38:15.033Z,9.57
2023-04-28T07:40:43.589Z,9.52
2023-04-28T07:43:12.914Z,10.93
2023-04-28T07:45:41.864Z,11.13
2023-04-28T07:48:09.853Z,12.13
2023-04-28T07:50:37.789Z,11.25
2023-04-28T07:53:05.661Z,9.90
2023-04-28T07:55:33.538Z,10.25
2023-04-28T07:58:01.687Z,10.55
2023-04-28T08:00:30.981Z,11.63
2023-04-28T08:02:59.020Z,11.02
2023-04-28T08:05:27.250Z,10.73
2023-04-28T08:07:55.204Z,11.68
2023-04-28T08:10:23.104Z,10.98
2023-04-28T08:12:51.249Z,14.65
2023-04-28T08:15:19.440Z,10.60
2023-04-28T08:17:48.767Z,10.18
2023-04-28T08:20:20.529Z,11.10
2023-04-28T08:22:49.556Z,12.65
2023-04-28T08:25:18.464Z,12.48
2023-04-28T08:27:46.373Z,12.02
2023-04-28T08:30:14.318Z,11.93
2023-04-28T08:32:42.202Z,11.73
2023-04-28T08:35:11.624Z,11.38
2023-04-28T08:37:39.675Z,10.77
2023-04-28T08:40:10.373Z,11.00
2023-04-28T08:42:39.539Z,14.10
2023-04-28T08:45:08.645Z,13.52
2023-04-28T08:47:38.292Z,15.55
2023-04-28T08:50:07.961Z,14.57
2023-04-28T08:52:37.361Z,14.48
2023-04-28T08:55:08.476Z,18.02
2023-04-28T08:57:41.395Z,14.68
2023-04-28T09:00:10.482Z,14.63
2023-04-28T09:02:41.993Z,14.45
2023-04-28T09:05:11.205Z,13.88
2023-04-28T09:07:40.820Z,15.25
2023-04-28T09:10:22.132Z,16.08
2023-04-28T09:12:53.018Z,15.40
2023-04-28T09:15:33.565Z,15.40
2023-04-28T09:18:02.396Z,17.25
2023-04-28T09:20:32.739Z,13.10
2023-04-28T09:23:17.398Z,15.27
2023-04-28T09:26:02.044Z,16.42
2023-04-28T09:28:30.008Z,17.45
2023-04-28T09:30:58.213Z,15.38
2023-04-28T09:33:26.348Z,16.58
2023-04-28T09:35:54.673Z,14.73
2023-04-28T09:38:24.518Z,16.00
2023-04-28T09:40:54.931Z,14.30
2023-04-28T09:43:27.265Z,16.08
2023-04-28T09:45:56.069Z,15.20
2023-04-28T09:48:34.443Z,13.95
2023-04-28T09:51:03.834Z,15.43
2023-04-28T09:53:34.480Z,13.73
2023-04-28T09:56:03.777Z,13.98
2023-04-28T09:58:32.823Z,13.88
2023-04-28T10:01:02.253Z,14.98
2023-04-28T10:03:31.746Z,14.85
2023-04-28T10:06:00.387Z,15.95
2023-04-28T10:08:28.561Z,21.65
2023-04-28T10:10:58.746Z,14.43
2023-04-28T10:13:26.696Z,17.98
2023-04-28T10:15:55.914Z,17.90
2023-04-28T10:18:25.077Z,16.60
2023-04-28T10:20:58.587Z,18.08
2023-04-28T10:23:59.510Z,15.63
2023-04-28T10:26:52.553Z,16.40
2023-04-28T10:29:24.709Z,15.27
2023-04-28T10:32:18.302Z,15.30
2023-04-28T10:34:46.278Z,19.00
2023-04-28T10:37:15.865Z,15.60
2023-04-28T10:40:29.711Z,17.00
2023-04-28T10:42:59.208Z,17.92
2023-04-28T10:46:06.165Z,16.08
2023-04-28T10:48:57.051Z,19.73
2023-04-28T10:51:31.828Z,15.05
2023-04-28T10:54:19.840Z,17.80
2023-04-28T10:57:19.968Z,16.40
2023-04-28T10:59:50.274Z,17.63
2023-04-28T11:02:37.867Z,14.23
2023-04-28T11:05:20.623Z,14.80
2023-04-28T11:08:37.155Z,16.33
2023-04-28T11:11:22.196Z,14.80
2023-04-28T11:13:50.940Z,14.77
2023-04-28T11:16:22.725Z,14.52
2023-04-28T11:19:04.644Z,16.15
2023-04-28T11:21:33.642Z,15.45
2023-04-28T11:24:02.152Z,16.67
2023-04-28T11:26:30.280Z,14.65
2023-04-28T11:28:59.456Z,15.07
2023-04-28T11:31:28.927Z,13.85
2023-04-28T11:34:04.283Z,15.82
2023-04-28T11:36:35.433Z,15.68
2023-04-28T11:39:07.841Z,14.05
2023-04-28T11:41:36.718Z,13.30
2023-04-28T11:44:12.135Z,14.82
2023-04-28T11:46:50.743Z,13.70
2023-04-28T11:49:19.329Z,14.15
2023-04-28T11:51:49.439Z,15.35
2023-04-28T11:54:23.300Z,13.88
2023-04-28T11:56:52.118Z,13.85
2023-04-28T12:02:00.732Z,14.18
2023-04-28T12:04:30.470Z,14.85
2023-04-28T12:07:03.590Z,12.65
2023-04-28T12:09:32.321Z,13.45
2023-04-28T12:12:02.811Z,12.30
2023-04-28T12:14:32.564Z,13.68
2023-04-28T12:17:02.032Z,14.13
2023-04-28T12:19:29.924Z,12.65
2023-04-28T12:22:05.722Z,11.35
2023-04-28T12:24:35.556Z,11.10
2023-04-28T12:27:17.083Z,10.05
2023-04-28T12:29:47.175Z,11.00
2023-04-28T12:32:17.304Z,10.90
2023-04-28T12:34:46.890Z,9.52
2023-04-28T12:37:15.106Z,8.85
2023-04-28T12:39:43.433Z,10.27
2023-04-28T12:42:11.774Z,8.77
2023-04-28T12:44:40.726Z,11.02
2023-04-28T12:47:10.915Z,8.52
2023-04-28T12:49:40.571Z,8.60
2023-04-28T12:52:08.444Z,8.15
2023-04-28T12:54:36.742Z,7.88
2023-04-28T12:57:05.581Z,7.70
2023-04-28T12:59:33.609Z,8.88
2023-04-28T13:02:01.501Z,7.75
2023-04-28T13:04:29.941Z,8.63
2023-04-28T13:06:59.604Z,9.10
2023-04-28T13:09:27.801Z,9.75
2023-04-28T13:11:55.774Z,9.13
2023-04-28T13:14:24.113Z,9.30
2023-04-28T13:16:53.062Z,9.63
2023-04-28T13:19:21.129Z,9.65
2023-04-28T13:21:48.980Z,11.05
2023-04-28T13:24:18.168Z,10.50
2023-04-28T13:26:46.307Z,11.77
2023-04-28T13:29:14.665Z,11.63
2023-04-28T13:31:42.744Z,10.88
2023-04-28T13:34:15.824Z,11.93
2023-04-28T13:36:44.831Z,12.70
2023-04-28T13:39:14.632Z,12.40
2023-04-28T13:41:44.139Z,13.50
2023-04-28T13:44:11.972Z,13.55
2023-04-28T13:46:39.915Z,15.30
2023-04-28T13:49:07.801Z,13.75
2023-04-28T13:51:35.687Z,15.35
2023-04-28T13:54:05.302Z,14.93
2023-04-28T13:56:33.413Z,14.43
2023-04-28T13:59:02.674Z,16.27
2023-04-28T14:01:30.778Z,14.80
2023-04-28T14:03:59.103Z,13.80
2023-04-28T14:06:28.792Z,15.55
2023-04-28T14:08:56.679Z,14.27
2023-04-28T14:11:24.530Z,12.68
2023-04-28T14:13:52.354Z,13.88
2023-04-28T14:16:21.578Z,12.30
2023-04-28T14:18:49.735Z,12.07
2023-04-28T14:21:17.571Z,12.20
2023-04-28T14:23:45.383Z,12.77
2023-04-28T14:26:13.245Z,12.57
2023-04-28T14:28:42.187Z,10.27
2023-04-28T14:31:10.155Z,9.63
2023-04-28T14:33:39.333Z,11.15
2023-04-28T14:36:07.404Z,11.05
2023-04-28T14:38:35.380Z,23.02
2023-04-28T14:41:03.798Z,17.40
2023-04-28T14:43:31.609Z,10.70
2023-04-28T14:45:59.479Z,9.40
2023-04-28T14:48:27.321Z,9.98
2023-04-28T14:50:58.116Z,9.48
2023-04-28T14:53:26.121Z,9.52
2023-04-28T14:55:56.005Z,7.03
2023-04-28T14:58:25.724Z,8.38
2023-04-28T15:00:53.866Z,6.85
2023-04-28T15:03:22.067Z,6.50
2023-04-28T15:05:49.973Z,6.70
2023-04-28T15:08:19.176Z,7.07
2023-04-28T15:10:47.014Z,6.72
2023-04-28T15:13:14.836Z,7.38
2023-04-28T15:15:42.703Z,6.95
2023-04-28T15:18:10.782Z,8.40
2023-04-28T15:20:38.648Z,10.07
2023-04-28T15:23:06.530Z,11.63
2023-04-28T15:25:35.682Z,7.97
2023-04-28T15:28:04.320Z,9.52
2023-04-28T15:30:32.154Z,8.60
2023-04-28T15:33:00.406Z,7.82
2023-04-28T15:35:28.702Z,8.60
2023-04-28T15:37:57.021Z,7.38
2023-04-28T15:40:24.844Z,8.50
2023-04-28T15:42:54.016Z,7.38
2023-04-28T15:45:22.922Z,6.93
2023-04-28T15:47:51.896Z,7.72
2023-04-28T15:50:20.712Z,6.90
2023-04-28T15:52:49.980Z,6.28
2023-04-28T15:55:19.972Z,7.40
2023-04-28T15:57:48.633Z,7.20
2023-04-28T16:00:17.990Z,7.28
2023-04-28T16:02:46.843Z,6.47
2023-04-28T16:05:15.164Z,6.20
2023-04-28T16:07:44.226Z,6.88
2023-04-28T16:10:14.411Z,7.65
2023-04-28T16:12:42.826Z,6.82
2023-04-28T16:15:12.502Z,6.57
2023-04-28T16:17:44.110Z,6.53
2023-04-28T16:20:12.561Z,7.78
2023-04-28T16:22:41.232Z,10.85
2023-04-28T16:25:10.458Z,7.82
2023-04-28T16:27:39.403Z,13.00
2023-04-28T16:30:08.475Z,9.85
2023-04-28T16:32:38.204Z,4.38
2023-04-28T16:35:11.800Z,7.88
2023-04-28T16:37:41.597Z,8.63
2023-04-28T16:40:10.635Z,12.70
2023-04-28T16:42:38.553Z,6.88
2023-04-28T16:45:07.308Z,5.32
2023-04-28T16:47:35.378Z,5.22
2023-04-28T16:50:03.382Z,3.97
2023-04-28T16:52:33.819Z,4.47
2023-04-28T16:55:01.690Z,4.65
2023-04-28T16:57:29.847Z,4.70
2023-04-28T16:59:57.715Z,7.82
2023-04-28T17:02:26.143Z,8.82
2023-04-28T17:04:54.268Z,6.82
2023-04-28T17:07:24.179Z,3.95
2023-04-28T17:09:54.827Z,5.15
2023-04-28T17:12:23.330Z,6.88
2023-04-28T17:14:52.737Z,3.75
2023-04-28T17:17:20.672Z,6.03
2023-04-28T17:19:48.616Z,5.65
2023-04-28T17:22:16.579Z,11.32
2023-04-28T17:24:45.367Z,9.07
2023-04-28T17:27:14.995Z,7.22
2023-04-28T17:29:43.451Z,9.90
2023-04-28T17:32:11.467Z,8.98
2023-04-28T17:34:39.346Z,9.82
2023-04-28T17:37:07.181Z,10.70
2023-04-28T17:39:35.030Z,11.50
2023-04-28T17:42:03.904Z,13.93
2023-04-28T17:44:33.112Z,19.02
2023-04-28T17:47:01.183Z,5.55
2023-04-28T17:49:29.233Z,4.93
2023-04-28T17:51:57.066Z,5.40
2023-04-28T17:54:24.942Z,6.40
2023-04-28T17:56:53.186Z,6.78
2023-04-28T17:59:21.597Z,6.05
2023-04-28T18:01:50.867Z,5.35
2023-04-28T18:04:18.765Z,5.38
2023-04-28T18:06:46.603Z,7.18
2023-04-28T18:09:14.505Z,6.07
2023-04-28T18:11:42.856Z,6.75
2023-04-28T18:14:11.069Z,5.22
2023-04-28T18:16:39.377Z,4.25
2023-04-28T18:19:09.022Z,5.20
2023-04-28T18:21:37.363Z,6.53
2023-04-28T18:24:05.271Z,5.28
2023-04-28T18:26:33.147Z,3.83
2023-04-28T18:29:01.022Z,4.00
2023-04-28T18:31:28.942Z,4.95
2023-04-28T18:33:57.108Z,5.78
2023-04-28T18:36:26.286Z,5.90
2023-04-28T18:38:54.133Z,5.28
2023-04-28T18:41:21.957Z,5.10
2023-04-28T18:43:49.875Z,5.25
2023-04-28T18:46:17.897Z,5.63
2023-04-28T18:48:45.835Z,5.20
2023-04-28T18:51:13.676Z,5.93
2023-04-28T18:53:42.853Z,10.70
2023-04-28T18:56:10.680Z,3.38
2023-04-28T18:58:40.902Z,4.53
2023-04-28T19:01:14.973Z,3.20
2023-04-28T19:03:43.674Z,6.07
2023-04-28T19:06:12.746Z,5.25
2023-04-28T19:08:42.917Z,3.80
2023-04-28T19:11:10.971Z,5.90
2023-04-28T19:13:39.776Z,5.30
2023-04-28T19:16:07.620Z,3.40
2023-04-28T19:18:35.658Z,5.50
2023-04-28T19:21:05.059Z,5.60
2023-04-28T19:23:33.767Z,6.75
2023-04-28T19:26:03.024Z,4.35
2023-04-28T19:28:31.138Z,5.03
2023-04-28T19:30:59.405Z,5.93
2023-04-28T19:33:31.934Z,5.25
2023-04-28T19:36:00.192Z,6.72
2023-04-28T19:38:40.153Z,5.38
2023-04-28T19:41:09.640Z,4.97
2023-04-28T19:43:37.766Z,4.03
2023-04-28T19:46:05.972Z,3.53
2023-04-28T19:48:33.917Z,4.45
2023-04-28T19:51:01.856Z,4.07
2023-04-28T19:53:29.962Z,8.50
2023-04-28T19:56:01.749Z,8.50
2023-04-28T19:58:32.317Z,12.50
2023-04-28T20:01:00.168Z,9.52
2023-04-28T20:03:29.811Z,9.23
2023-04-28T20:05:57.934Z,4.68
2023-04-28T20:08:27.460Z,5.18
2023-04-28T20:10:55.568Z,8.10
2023-04-28T20:13:24.085Z,6.88
2023-04-28T20:15:53.303Z,7.82
2023-04-28T20:18:21.247Z,4.18
2023-04-28T20:20:49.171Z,4.00
2023-04-28T20:23:17.040Z,3.80
2023-04-28T20:25:45.865Z,3.58
2023-04-28T20:28:13.786Z,3.33
2023-04-28T20:30:42.318Z,3.80
2023-04-28T20:33:11.899Z,5.80
2023-04-28T20:35:39.790Z,6.20
2023-04-28T20:38:07.737Z,3.67
2023-04-28T20:40:37.039Z,4.03
2023-04-28T20:43:04.942Z,4.15
2023-04-28T20:45:34.457Z,3.90
2023-04-28T20:48:03.063Z,3.53
2023-04-28T20:50:33.330Z,2.85
2023-04-28T20:53:01.370Z,3.13
2023-04-28T20:55:29.345Z,5.75
2023-04-28T20:57:57.562Z,4.38
2023-04-28T21:00:25.406Z,4.10
2023-04-28T21:02:53.407Z,4.00
2023-04-28T21:05:22.618Z,4.00
2023-04-28T21:07:51.970Z,5.50
2023-04-28T21:10:20.011Z,5.85
2023-04-28T21:12:47.866Z,6.45
2023-04-28T21:15:15.926Z,3.75
2023-04-28T21:17:44.281Z,3.42
2023-04-28T21:20:14.551Z,5.07
2023-04-28T21:22:42.446Z,7.07
2023-04-28T21:25:11.792Z,4.68
2023-04-28T21:27:40.094Z,3.55
2023-04-28T21:30:10.303Z,3.53
2023-04-28T21:32:38.798Z,3.25
2023-04-28T21:35:07.884Z,5.55
2023-04-28T21:37:35.785Z,3.28
2023-04-28T21:40:04.400Z,2.50
2023-04-28T21:42:34.441Z,2.40
2023-04-28T21:45:02.410Z,2.85
2023-04-28T21:47:30.294Z,2.08
2023-04-28T21:49:58.209Z,3.58
2023-04-28T21:52:26.062Z,3.55
2023-04-28T21:54:54.239Z,2.95
2023-04-28T21:57:22.125Z,2.67
2023-04-28T21:59:51.885Z,2.70
